Terminal Aerodrome Forecast
Issued by NWS

Home | Current Version | Previous Version | Graphics & Text | Print | Product List | Glossary On
Versions: 1 2 3 4 5 6 7 8 9 10 11 12 13
000
FTUS45 KGGW 202300
TAFSDY
TAF
KSDY 202321Z 2100/2124 18005KT P6SM BKN200
     FM210600 20004KT 6SM BR VCFG SCT001 BKN150
     FM211200 21008KT 6SM BR VCFG SCT001 SCT150 WS010/27033KT
     FM211700 25014KT P6SM SCT200
      AMD LTD TO CLD VIS AND WIND=

USA.gov is the U.S. government's official web portal to all federal, state and local government web resources and services.